sensor_id;sensor_type;location;lat;lon;timestamp;P1;durP1;ratioP1;P2;durP2;ratioP2
9310;SDS011;4694;52.464;13.480;2023-03-14T07:32:52;6.20;;;1.70;;
9310;SDS011;4694;52.464;13.480;2023-03-14T07:35:19;3.08;;;0.90;;
9310;SDS011;4694;52.464;13.480;2023-03-14T07:37:46;2.50;;;0.80;;
9310;SDS011;4694;52.464;13.480;2023-03-14T07:40:15;3.70;;;0.50;;
9310;SDS011;4694;52.464;13.480;2023-03-14T07:42:42;2.13;;;0.88;;
9310;SDS011;4694;52.464;13.480;2023-03-14T07:45:10;3.78;;;0.85;;
9310;SDS011;4694;52.464;13.480;2023-03-14T07:47:37;3.45;;;0.60;;
9310;SDS011;4694;52.464;13.480;2023-03-14T07:50:06;2.70;;;1.30;;
9310;SDS011;4694;52.464;13.480;2023-03-14T07:52:33;2.58;;;0.80;;
9310;SDS011;4694;52.464;13.480;2023-03-14T07:55:00;0.85;;;0.60;;
9310;SDS011;4694;52.464;13.480;2023-03-14T07:57:27;4.30;;;0.77;;
9310;SDS011;4694;52.464;13.480;2023-03-14T07:59:54;2.85;;;1.30;;
9310;SDS011;4694;52.464;13.480;2023-03-14T08:02:21;3.63;;;0.88;;
9310;SDS011;4694;52.464;13.480;2023-03-14T08:04:49;3.97;;;0.60;;
9310;SDS011;4694;52.464;13.480;2023-03-14T08:07:17;2.47;;;0.60;;
9310;SDS011;4694;52.464;13.480;2023-03-14T08:09:44;3.40;;;1.27;;
9310;SDS011;4694;52.464;13.480;2023-03-14T08:12:11;5.28;;;0.60;;
9310;SDS011;4694;52.464;13.480;2023-03-14T08:14:38;3.25;;;0.60;;
9310;SDS011;4694;52.464;13.480;2023-03-14T08:17:07;1.50;;;0.50;;
9310;SDS011;4694;52.464;13.480;2023-03-14T08:19:34;2.30;;;0.60;;
9310;SDS011;4694;52.464;13.480;2023-03-14T08:22:01;5.00;;;0.70;;
9310;SDS011;4694;52.464;13.480;2023-03-14T08:24:29;3.13;;;0.90;;
9310;SDS011;4694;52.464;13.480;2023-03-14T08:26:56;2.47;;;1.02;;
9310;SDS011;4694;52.464;13.480;2023-03-14T08:29:23;4.28;;;0.70;;
9310;SDS011;4694;52.464;13.480;2023-03-14T08:31:50;1.48;;;0.52;;
9310;SDS011;4694;52.464;13.480;2023-03-14T08:34:18;1.92;;;0.88;;
9310;SDS011;4694;52.464;13.480;2023-03-14T08:36:45;3.65;;;0.75;;
9310;SDS011;4694;52.464;13.480;2023-03-14T08:39:12;2.53;;;0.95;;
9310;SDS011;4694;52.464;13.480;2023-03-14T08:41:41;3.42;;;0.80;;
9310;SDS011;4694;52.464;13.480;2023-03-14T08:44:09;4.35;;;0.90;;
9310;SDS011;4694;52.464;13.480;2023-03-14T08:46:37;2.88;;;0.55;;
9310;SDS011;4694;52.464;13.480;2023-03-14T08:49:04;1.13;;;0.75;;
9310;SDS011;4694;52.464;13.480;2023-03-14T08:51:31;1.92;;;0.45;;
9310;SDS011;4694;52.464;13.480;2023-03-14T08:53:59;4.05;;;0.85;;
9310;SDS011;4694;52.464;13.480;2023-03-14T08:56:26;6.32;;;1.27;;
9310;SDS011;4694;52.464;13.480;2023-03-14T08:58:54;1.50;;;0.88;;
9310;SDS011;4694;52.464;13.480;2023-03-14T09:01:21;2.90;;;0.82;;
9310;SDS011;4694;52.464;13.480;2023-03-14T09:03:50;3.63;;;1.10;;
9310;SDS011;4694;52.464;13.480;2023-03-14T09:06:17;1.10;;;0.90;;
9310;SDS011;4694;52.464;13.480;2023-03-14T09:08:44;2.83;;;0.60;;
9310;SDS011;4694;52.464;13.480;2023-03-14T09:11:11;1.80;;;0.93;;
9310;SDS011;4694;52.464;13.480;2023-03-14T09:13:38;5.45;;;1.98;;
9310;SDS011;4694;52.464;13.480;2023-03-14T09:16:07;5.30;;;1.40;;
9310;SDS011;4694;52.464;13.480;2023-03-14T09:18:34;4.13;;;0.80;;
9310;SDS011;4694;52.464;13.480;2023-03-14T09:21:03;4.00;;;0.55;;
9310;SDS011;4694;52.464;13.480;2023-03-14T09:23:30;1.58;;;0.55;;
9310;SDS011;4694;52.464;13.480;2023-03-14T09:25:58;2.63;;;0.60;;
9310;SDS011;4694;52.464;13.480;2023-03-14T09:28:25;5.00;;;0.70;;
9310;SDS011;4694;52.464;13.480;2023-03-14T09:30:52;1.88;;;0.47;;
9310;SDS011;4694;52.464;13.480;2023-03-14T09:33:21;3.90;;;0.85;;
9310;SDS011;4694;52.464;13.480;2023-03-14T09:35:48;1.70;;;0.70;;
9310;SDS011;4694;52.464;13.480;2023-03-14T09:38:15;1.67;;;0.68;;
9310;SDS011;4694;52.464;13.480;2023-03-14T09:40:42;3.15;;;1.38;;
9310;SDS011;4694;52.464;13.480;2023-03-14T09:43:09;5.13;;;0.68;;
9310;SDS011;4694;52.464;13.480;2023-03-14T09:45:38;1.67;;;0.43;;
9310;SDS011;4694;52.464;13.480;2023-03-14T09:48:05;2.53;;;0.50;;
9310;SDS011;4694;52.464;13.480;2023-03-14T09:50:36;1.38;;;0.50;;
9310;SDS011;4694;52.464;13.480;2023-03-14T09:53:04;2.47;;;0.60;;
9310;SDS011;4694;52.464;13.480;2023-03-14T09:55:33;1.63;;;0.67;;
9310;SDS011;4694;52.464;13.480;2023-03-14T09:58:02;4.28;;;0.90;;
9310;SDS011;4694;52.464;13.480;2023-03-14T10:00:30;1.33;;;0.52;;
9310;SDS011;4694;52.464;13.480;2023-03-14T10:02:59;2.58;;;0.52;;
9310;SDS011;4694;52.464;13.480;2023-03-14T10:05:27;1.73;;;0.45;;
9310;SDS011;4694;52.464;13.480;2023-03-14T10:07:55;3.50;;;0.63;;
9310;SDS011;4694;52.464;13.480;2023-03-14T10:10:24;3.45;;;0.73;;
9310;SDS011;4694;52.464;13.480;2023-03-14T10:12:54;1.35;;;0.70;;
9310;SDS011;4694;52.464;13.480;2023-03-14T10:15:22;3.58;;;0.50;;
9310;SDS011;4694;52.464;13.480;2023-03-14T10:17:51;1.73;;;0.38;;
9310;SDS011;4694;52.464;13.480;2023-03-14T10:20:29;3.92;;;0.50;;
9310;SDS011;4694;52.464;13.480;2023-03-14T10:22:59;3.45;;;0.60;;
9310;SDS011;4694;52.464;13.480;2023-03-14T10:25:29;3.72;;;0.93;;
9310;SDS011;4694;52.464;13.480;2023-03-14T10:27:56;2.20;;;0.43;;
9310;SDS011;4694;52.464;13.480;2023-03-14T10:30:27;4.63;;;1.02;;
9310;SDS011;4694;52.464;13.480;2023-03-14T10:32:56;2.17;;;0.40;;
9310;SDS011;4694;52.464;13.480;2023-03-14T10:35:23;1.80;;;0.60;;
9310;SDS011;4694;52.464;13.480;2023-03-14T10:37:51;2.10;;;0.65;;
9310;SDS011;4694;52.464;13.480;2023-03-14T10:40:22;3.15;;;1.00;;
9310;SDS011;4694;52.464;13.480;2023-03-14T10:42:51;1.30;;;0.60;;
9310;SDS011;4694;52.464;13.480;2023-03-14T10:45:26;1.27;;;0.38;;
9310;SDS011;4694;52.464;13.480;2023-03-14T10:47:54;3.88;;;0.50;;
9310;SDS011;4694;52.464;13.480;2023-03-14T10:50:26;1.92;;;0.40;;
9310;SDS011;4694;52.464;13.480;2023-03-14T10:52:54;3.50;;;0.38;;
9310;SDS011;4694;52.464;13.480;2023-03-14T10:55:24;1.83;;;0.47;;
9310;SDS011;4694;52.464;13.480;2023-03-14T10:57:51;3.58;;;0.73;;
9310;SDS011;4694;52.464;13.480;2023-03-14T11:00:19;0.73;;;0.60;;
9310;SDS011;4694;52.464;13.480;2023-03-14T11:02:49;2.67;;;0.30;;
9310;SDS011;4694;52.464;13.480;2023-03-14T11:05:24;3.08;;;0.60;;
9310;SDS011;4694;52.464;13.480;2023-03-14T11:07:52;0.63;;;0.63;;
9310;SDS011;4694;52.464;13.480;2023-03-14T11:10:22;1.55;;;0.40;;
9310;SDS011;4694;52.464;13.480;2023-03-14T11:15:20;0.50;;;0.25;;
9310;SDS011;4694;52.464;13.480;2023-03-14T11:17:51;2.00;;;0.32;;
9310;SDS011;4694;52.464;13.480;2023-03-14T11:20:24;2.10;;;0.20;;
9310;SDS011;4694;52.464;13.480;2023-03-14T11:22:55;2.45;;;1.15;;
9310;SDS011;4694;52.464;13.480;2023-03-14T11:25:28;0.95;;;0.32;;
9310;SDS011;4694;52.464;13.480;2023-03-14T11:28:01;2.70;;;0.43;;
9310;SDS011;4694;52.464;13.480;2023-03-14T11:30:34;0.80;;;0.30;;
9310;SDS011;4694;52.464;13.480;2023-03-14T11:33:03;2.25;;;0.28;;
9310;SDS011;4694;52.464;13.480;2023-03-14T11:35:33;1.55;;;0.93;;
9310;SDS011;4694;52.464;13.480;2023-03-14T11:38:03;3.33;;;0.60;;
9310;SDS011;4694;52.464;13.480;2023-03-14T11:40:32;1.35;;;0.30;;
9310;SDS011;4694;52.464;13.480;2023-03-14T11:43:03;4.57;;;1.05;;
9310;SDS011;4694;52.464;13.480;2023-03-14T11:45:32;2.28;;;0.65;;
9310;SDS011;4694;52.464;13.480;2023-03-14T11:48:17;1.42;;;0.40;;
9310;SDS011;4694;52.464;13.480;2023-03-14T11:50:47;8.10;;;0.93;;
9310;SDS011;4694;52.464;13.480;2023-03-14T11:53:17;1.90;;;0.40;;
9310;SDS011;4694;52.464;13.480;2023-03-14T11:55:46;2.45;;;0.40;;
9310;SDS011;4694;52.464;13.480;2023-03-14T11:58:16;0.98;;;0.30;;
9310;SDS011;4694;52.464;13.480;2023-03-14T12:00:44;0.50;;;0.30;;
9310;SDS011;4694;52.464;13.480;2023-03-14T12:03:14;0.65;;;0.32;;
9310;SDS011;4694;52.464;13.480;2023-03-14T12:05:50;1.27;;;0.70;;
9310;SDS011;4694;52.464;13.480;2023-03-14T12:08:33;2.63;;;0.40;;
9310;SDS011;4694;52.464;13.480;2023-03-14T12:11:04;4.00;;;0.50;;
9310;SDS011;4694;52.464;13.480;2023-03-14T12:13:37;4.28;;;0.80;;
9310;SDS011;4694;52.464;13.480;2023-03-14T12:16:05;2.70;;;0.90;;
9310;SDS011;4694;52.464;13.480;2023-03-14T12:18:33;1.73;;;0.50;;
9310;SDS011;4694;52.464;13.480;2023-03-14T12:21:05;1.33;;;0.30;;
9310;SDS011;4694;52.464;13.480;2023-03-14T12:23:36;1.23;;;0.70;;
9310;SDS011;4694;52.464;13.480;2023-03-14T12:26:07;0.57;;;0.35;;
9310;SDS011;4694;52.464;13.480;2023-03-14T12:28:41;3.58;;;1.08;;
9310;SDS011;4694;52.464;13.480;2023-03-14T12:34:00;3.30;;;0.70;;
9310;SDS011;4694;52.464;13.480;2023-03-14T12:39:32;2.10;;;0.40;;
9310;SDS011;4694;52.464;13.480;2023-03-14T12:42:02;1.00;;;0.63;;
9310;SDS011;4694;52.464;13.480;2023-03-14T12:44:46;1.58;;;0.55;;
9310;SDS011;4694;52.464;13.480;2023-03-14T12:50:14;3.00;;;0.55;;
9310;SDS011;4694;52.464;13.480;2023-03-14T12:52:45;1.05;;;0.32;;
9310;SDS011;4694;52.464;13.480;2023-03-14T12:55:17;1.02;;;0.40;;
9310;SDS011;4694;52.464;13.480;2023-03-14T12:57:50;0.80;;;0.40;;
9310;SDS011;4694;52.464;13.480;2023-03-14T13:00:23;3.15;;;0.63;;
9310;SDS011;4694;52.464;13.480;2023-03-14T13:02:59;0.80;;;0.30;;
9310;SDS011;4694;52.464;13.480;2023-03-14T13:05:29;2.08;;;0.40;;
9310;SDS011;4694;52.464;13.480;2023-03-14T13:08:04;0.50;;;0.20;;
9310;SDS011;4694;52.464;13.480;2023-03-14T13:10:45;2.53;;;0.20;;
9310;SDS011;4694;52.464;13.480;2023-03-14T13:13:15;1.58;;;0.22;;
9310;SDS011;4694;52.464;13.480;2023-03-14T13:18:15;1.40;;;0.30;;
9310;SDS011;4694;52.464;13.480;2023-03-14T13:23:19;4.57;;;1.17;;
9310;SDS011;4694;52.464;13.480;2023-03-14T13:25:48;4.65;;;1.83;;
9310;SDS011;4694;52.464;13.480;2023-03-14T13:28:15;4.60;;;1.15;;
9310;SDS011;4694;52.464;13.480;2023-03-14T13:30:43;1.48;;;0.70;;
9310;SDS011;4694;52.464;13.480;2023-03-14T13:33:14;2.28;;;0.90;;
9310;SDS011;4694;52.464;13.480;2023-03-14T13:35:42;2.25;;;0.50;;
9310;SDS011;4694;52.464;13.480;2023-03-14T13:38:17;0.85;;;0.40;;
9310;SDS011;4694;52.464;13.480;2023-03-14T13:40:45;8.38;;;3.13;;
9310;SDS011;4694;52.464;13.480;2023-03-14T13:43:21;13.68;;;5.32;;
9310;SDS011;4694;52.464;13.480;2023-03-14T13:45:54;1.35;;;0.30;;
9310;SDS011;4694;52.464;13.480;2023-03-14T13:48:26;0.32;;;0.20;;
9310;SDS011;4694;52.464;13.480;2023-03-14T13:50:55;0.38;;;0.20;;
9310;SDS011;4694;52.464;13.480;2023-03-14T13:53:22;0.45;;;0.10;;
9310;SDS011;4694;52.464;13.480;2023-03-14T13:55:51;0.38;;;0.20;;
9310;SDS011;4694;52.464;13.480;2023-03-14T13:58:24;1.58;;;0.30;;
9310;SDS011;4694;52.464;13.480;2023-03-14T14:01:10;0.68;;;0.20;;
9310;SDS011;4694;52.464;13.480;2023-03-14T14:03:38;1.38;;;0.22;;
9310;SDS011;4694;52.464;13.480;2023-03-14T14:06:08;1.00;;;0.30;;
9310;SDS011;4694;52.464;13.480;2023-03-14T14:08:39;1.45;;;0.20;;
9310;SDS011;4694;52.464;13.480;2023-03-14T14:11:07;0.88;;;0.47;;
9310;SDS011;4694;52.464;13.480;2023-03-14T14:13:42;0.32;;;0.25;;
9310;SDS011;4694;52.464;13.480;2023-03-14T14:16:19;1.77;;;0.70;;
9310;SDS011;4694;52.464;13.480;2023-03-14T14:18:48;1.05;;;0.30;;
9310;SDS011;4694;52.464;13.480;2023-03-14T14:21:15;1.75;;;0.88;;
9310;SDS011;4694;52.464;13.480;2023-03-14T14:23:42;1.88;;;0.45;;
9310;SDS011;4694;52.464;13.480;2023-03-14T14:26:13;0.25;;;0.17;;
9310;SDS011;4694;52.464;13.480;2023-03-14T14:28:42;0.63;;;0.20;;
9310;SDS011;4694;52.464;13.480;2023-03-14T14:31:18;1.08;;;0.20;;
9310;SDS011;4694;52.464;13.480;2023-03-14T14:33:46;3.58;;;0.30;;
9310;SDS011;4694;52.464;13.480;2023-03-14T14:36:17;1.35;;;0.30;;
9310;SDS011;4694;52.464;13.480;2023-03-14T14:38:49;0.32;;;0.30;;
9310;SDS011;4694;52.464;13.480;2023-03-14T14:41:16;0.10;;;0.10;;
9310;SDS011;4694;52.464;13.480;2023-03-14T14:43:44;0.13;;;0.10;;
9310;SDS011;4694;52.464;13.480;2023-03-14T14:46:15;2.50;;;0.20;;
9310;SDS011;4694;52.464;13.480;2023-03-14T14:48:43;0.32;;;0.20;;
9310;SDS011;4694;52.464;13.480;2023-03-14T14:51:22;0.50;;;0.50;;
9310;SDS011;4694;52.464;13.480;2023-03-14T14:53:49;0.77;;;0.30;;
9310;SDS011;4694;52.464;13.480;2023-03-14T14:56:17;1.88;;;0.47;;
9310;SDS011;4694;52.464;13.480;2023-03-14T15:01:15;0.20;;;0.20;;
9310;SDS011;4694;52.464;13.480;2023-03-14T15:03:44;0.50;;;0.22;;
9310;SDS011;4694;52.464;13.480;2023-03-14T15:06:12;1.05;;;0.10;;
9310;SDS011;4694;52.464;13.480;2023-03-14T15:08:40;1.73;;;0.40;;
9310;SDS011;4694;52.464;13.480;2023-03-14T15:11:08;0.85;;;0.50;;
9310;SDS011;4694;52.464;13.480;2023-03-14T15:13:37;1.13;;;0.30;;
9310;SDS011;4694;52.464;13.480;2023-03-14T15:16:07;1.55;;;0.22;;
9310;SDS011;4694;52.464;13.480;2023-03-14T15:21:03;0.77;;;0.30;;
9310;SDS011;4694;52.464;13.480;2023-03-14T15:23:30;0.20;;;0.20;;
9310;SDS011;4694;52.464;13.480;2023-03-14T15:25:57;0.52;;;0.50;;
9310;SDS011;4694;52.464;13.480;2023-03-14T15:28:25;1.60;;;0.47;;
9310;SDS011;4694;52.464;13.480;2023-03-14T15:30:53;1.50;;;0.30;;
9310;SDS011;4694;52.464;13.480;2023-03-14T15:33:20;0.80;;;0.30;;
9310;SDS011;4694;52.464;13.480;2023-03-14T15:35:47;1.45;;;0.30;;
9310;SDS011;4694;52.464;13.480;2023-03-14T15:38:16;0.17;;;0.17;;
9310;SDS011;4694;52.464;13.480;2023-03-14T15:40:46;1.90;;;0.30;;
9310;SDS011;4694;52.464;13.480;2023-03-14T15:43:13;0.47;;;0.28;;
9310;SDS011;4694;52.464;13.480;2023-03-14T15:45:39;2.92;;;0.20;;
9310;SDS011;4694;52.464;13.480;2023-03-14T15:48:08;1.30;;;0.20;;
9310;SDS011;4694;52.464;13.480;2023-03-14T15:50:38;0.28;;;0.10;;
9310;SDS011;4694;52.464;13.480;2023-03-14T15:53:05;2.00;;;0.28;;
9310;SDS011;4694;52.464;13.480;2023-03-14T15:55:34;0.10;;;0.10;;
9310;SDS011;4694;52.464;13.480;2023-03-14T15:58:01;0.10;;;0.10;;
9310;SDS011;4694;52.464;13.480;2023-03-14T16:00:28;1.08;;;0.17;;
9310;SDS011;4694;52.464;13.480;2023-03-14T16:02:55;0.68;;;0.22;;
9310;SDS011;4694;52.464;13.480;2023-03-14T16:05:22;1.85;;;0.10;;
9310;SDS011;4694;52.464;13.480;2023-03-14T16:07:49;0.40;;;0.10;;
9310;SDS011;4694;52.464;13.480;2023-03-14T16:10:16;1.48;;;0.77;;
9310;SDS011;4694;52.464;13.480;2023-03-14T16:12:44;0.90;;;0.10;;
9310;SDS011;4694;52.464;13.480;2023-03-14T16:15:11;2.10;;;0.32;;
9310;SDS011;4694;52.464;13.480;2023-03-14T16:17:43;2.45;;;0.93;;
9310;SDS011;4694;52.464;13.480;2023-03-14T16:20:11;4.45;;;0.30;;
9310;SDS011;4694;52.464;13.480;2023-03-14T16:22:38;0.50;;;0.20;;
9310;SDS011;4694;52.464;13.480;2023-03-14T16:25:06;0.25;;;0.20;;
9310;SDS011;4694;52.464;13.480;2023-03-14T16:27:33;1.25;;;0.38;;
9310;SDS011;4694;52.464;13.480;2023-03-14T16:30:02;2.63;;;0.40;;
9310;SDS011;4694;52.464;13.480;2023-03-14T16:32:30;3.63;;;1.25;;
9310;SDS011;4694;52.464;13.480;2023-03-14T16:34:57;2.00;;;0.40;;
9310;SDS011;4694;52.464;13.480;2023-03-14T16:37:24;1.30;;;0.20;;
9310;SDS011;4694;52.464;13.480;2023-03-14T16:39:52;0.70;;;0.25;;
9310;SDS011;4694;52.464;13.480;2023-03-14T16:42:19;1.13;;;0.40;;
9310;SDS011;4694;52.464;13.480;2023-03-14T16:44:46;2.55;;;0.20;;
9310;SDS011;4694;52.464;13.480;2023-03-14T16:47:15;1.65;;;0.40;;
9310;SDS011;4694;52.464;13.480;2023-03-14T16:49:42;1.63;;;0.40;;
9310;SDS011;4694;52.464;13.480;2023-03-14T16:52:09;2.13;;;0.50;;
9310;SDS011;4694;52.464;13.480;2023-03-14T16:54:36;0.50;;;0.30;;
9310;SDS011;4694;52.464;13.480;2023-03-14T16:57:03;1.05;;;0.60;;
9310;SDS011;4694;52.464;13.480;2023-03-14T16:59:30;0.68;;;0.43;;
9310;SDS011;4694;52.464;13.480;2023-03-14T17:01:57;0.90;;;0.40;;
9310;SDS011;4694;52.464;13.480;2023-03-14T17:04:25;1.55;;;0.35;;
9310;SDS011;4694;52.464;13.480;2023-03-14T17:06:52;3.33;;;0.45;;
9310;SDS011;4694;52.464;13.480;2023-03-14T17:09:20;0.45;;;0.45;;
9310;SDS011;4694;52.464;13.480;2023-03-14T17:11:47;4.57;;;0.70;;
9310;SDS011;4694;52.464;13.480;2023-03-14T17:14:13;2.80;;;0.95;;
9310;SDS011;4694;52.464;13.480;2023-03-14T17:16:40;3.47;;;1.33;;
9310;SDS011;4694;52.464;13.480;2023-03-14T17:19:07;1.63;;;0.80;;
9310;SDS011;4694;52.464;13.480;2023-03-14T17:21:36;4.18;;;1.25;;
9310;SDS011;4694;52.464;13.480;2023-03-14T17:24:03;3.08;;;2.30;;
9310;SDS011;4694;52.464;13.480;2023-03-14T17:26:30;3.25;;;1.27;;
9310;SDS011;4694;52.464;13.480;2023-03-14T17:28:57;5.47;;;0.77;;
9310;SDS011;4694;52.464;13.480;2023-03-14T17:31:24;2.60;;;0.90;;
9310;SDS011;4694;52.464;13.480;2023-03-14T17:33:51;1.65;;;0.70;;
9310;SDS011;4694;52.464;13.480;2023-03-14T17:36:19;2.80;;;1.00;;
9310;SDS011;4694;52.464;13.480;2023-03-14T17:38:51;1.23;;;0.80;;
9310;SDS011;4694;52.464;13.480;2023-03-14T17:41:19;2.35;;;1.10;;
9310;SDS011;4694;52.464;13.480;2023-03-14T17:43:46;1.55;;;1.08;;
9310;SDS011;4694;52.464;13.480;2023-03-14T17:46:13;27.50;;;10.10;;
9310;SDS011;4694;52.464;13.480;2023-03-14T17:48:42;4.80;;;2.10;;
9310;SDS011;4694;52.464;13.480;2023-03-14T17:51:09;4.63;;;1.92;;
9310;SDS011;4694;52.464;13.480;2023-03-14T17:53:37;6.22;;;2.20;;
9310;SDS011;4694;52.464;13.480;2023-03-14T17:56:06;3.65;;;1.98;;
9310;SDS011;4694;52.464;13.480;2023-03-14T17:58:33;9.27;;;3.40;;
9310;SDS011;4694;52.464;13.480;2023-03-14T18:01:10;10.73;;;3.45;;
9310;SDS011;4694;52.464;13.480;2023-03-14T18:03:37;7.97;;;2.75;;
9310;SDS011;4694;52.464;13.480;2023-03-14T18:06:07;12.05;;;2.70;;
9310;SDS011;4694;52.464;13.480;2023-03-14T18:08:35;9.93;;;4.03;;
9310;SDS011;4694;52.464;13.480;2023-03-14T18:11:02;10.30;;;6.15;;
9310;SDS011;4694;52.464;13.480;2023-03-14T18:13:32;7.07;;;3.83;;
9310;SDS011;4694;52.464;13.480;2023-03-14T18:16:01;26.27;;;8.48;;
9310;SDS011;4694;52.464;13.480;2023-03-14T18:18:28;8.23;;;5.00;;
9310;SDS011;4694;52.464;13.480;2023-03-14T18:20:55;8.48;;;3.70;;
9310;SDS011;4694;52.464;13.480;2023-03-14T18:23:23;11.05;;;5.28;;
9310;SDS011;4694;52.464;13.480;2023-03-14T18:25:50;11.55;;;3.88;;
9310;SDS011;4694;52.464;13.480;2023-03-14T18:28:18;8.02;;;3.30;;
9310;SDS011;4694;52.464;13.480;2023-03-14T18:30:48;9.48;;;3.85;;
9310;SDS011;4694;52.464;13.480;2023-03-14T18:33:17;10.43;;;2.85;;
9310;SDS011;4694;52.464;13.480;2023-03-14T18:35:45;5.80;;;2.88;;
9310;SDS011;4694;52.464;13.480;2023-03-14T18:38:12;8.48;;;4.15;;
9310;SDS011;4694;52.464;13.480;2023-03-14T18:40:39;7.60;;;3.70;;
9310;SDS011;4694;52.464;13.480;2023-03-14T18:43:06;6.82;;;2.78;;
9310;SDS011;4694;52.464;13.480;2023-03-14T18:45:33;8.20;;;3.42;;
9310;SDS011;4694;52.464;13.480;2023-03-14T18:48:01;6.30;;;2.95;;
9310;SDS011;4694;52.464;13.480;2023-03-14T18:50:28;4.65;;;2.58;;
9310;SDS011;4694;52.464;13.480;2023-03-14T18:52:55;12.30;;;3.83;;
9310;SDS011;4694;52.464;13.480;2023-03-14T18:55:22;12.00;;;4.47;;
9310;SDS011;4694;52.464;13.480;2023-03-14T18:57:49;11.93;;;4.18;;
9310;SDS011;4694;52.464;13.480;2023-03-14T19:00:17;11.20;;;3.00;;
9310;SDS011;4694;52.464;13.480;2023-03-14T19:02:44;9.27;;;2.22;;
9310;SDS011;4694;52.464;13.480;2023-03-14T19:05:13;7.22;;;1.90;;
9310;SDS011;4694;52.464;13.480;2023-03-14T19:07:40;11.13;;;3.20;;
9310;SDS011;4694;52.464;13.480;2023-03-14T19:10:08;8.40;;;1.95;;
9310;SDS011;4694;52.464;13.480;2023-03-14T19:12:36;6.60;;;2.50;;
9310;SDS011;4694;52.464;13.480;2023-03-14T19:15:03;9.82;;;1.52;;
9310;SDS011;4694;52.464;13.480;2023-03-14T19:17:31;4.95;;;2.50;;
9310;SDS011;4694;52.464;13.480;2023-03-14T19:19:58;3.95;;;1.23;;
9310;SDS011;4694;52.464;13.480;2023-03-14T19:22:26;6.70;;;2.80;;
9310;SDS011;4694;52.464;13.480;2023-03-14T19:24:53;4.45;;;1.95;;
9310;SDS011;4694;52.464;13.480;2023-03-14T19:27:20;9.77;;;4.32;;
9310;SDS011;4694;52.464;13.480;2023-03-14T19:29:47;9.00;;;2.55;;
9310;SDS011;4694;52.464;13.480;2023-03-14T19:32:16;14.05;;;3.67;;
9310;SDS011;4694;52.464;13.480;2023-03-14T19:34:43;7.88;;;2.90;;
9310;SDS011;4694;52.464;13.480;2023-03-14T19:37:10;5.55;;;2.17;;
9310;SDS011;4694;52.464;13.480;2023-03-14T19:39:39;5.10;;;1.92;;
9310;SDS011;4694;52.464;13.480;2023-03-14T19:42:09;10.25;;;3.05;;
9310;SDS011;4694;52.464;13.480;2023-03-14T19:44:36;8.25;;;2.85;;
9310;SDS011;4694;52.464;13.480;2023-03-14T19:47:03;11.52;;;2.53;;
9310;SDS011;4694;52.464;13.480;2023-03-14T19:49:30;6.47;;;2.58;;
9310;SDS011;4694;52.464;13.480;2023-03-14T19:51:57;15.63;;;3.00;;
9310;SDS011;4694;52.464;13.480;2023-03-14T19:54:25;9.05;;;2.30;;
9310;SDS011;4694;52.464;13.480;2023-03-14T19:56:53;7.85;;;3.20;;
9310;SDS011;4694;52.464;13.480;2023-03-14T19:59:20;11.77;;;3.42;;
9310;SDS011;4694;52.464;13.480;2023-03-14T20:01:47;12.90;;;4.22;;
9310;SDS011;4694;52.464;13.480;2023-03-14T20:04:16;9.30;;;2.40;;
9310;SDS011;4694;52.464;13.480;2023-03-14T20:06:43;11.00;;;3.90;;
9310;SDS011;4694;52.464;13.480;2023-03-14T20:09:10;11.10;;;2.58;;
9310;SDS011;4694;52.464;13.480;2023-03-14T20:11:37;7.72;;;1.85;;
9310;SDS011;4694;52.464;13.480;2023-03-14T20:14:07;10.32;;;2.72;;
9310;SDS011;4694;52.464;13.480;2023-03-14T20:16:34;19.08;;;2.65;;
9310;SDS011;4694;52.464;13.480;2023-03-14T20:19:02;12.38;;;1.92;;
9310;SDS011;4694;52.464;13.480;2023-03-14T20:21:30;9.57;;;3.35;;
9310;SDS011;4694;52.464;13.480;2023-03-14T20:23:58;10.02;;;2.80;;
